Time;durP1;ratioP1;P1;durP2;ratioP2;P2;SDS_P1;SDS_P2;PMS_P1;PMS_P2;Temp;Humidity;BMP_temperature;BMP_pressure;BME280_temperature;BME280_humidity;BME280_pressure;Samples;Min_cycle;Max_cycle;Signal;HPM_P1;HPM_P2
2022/04/06 00:01:26;;;;;;;27.95;12.43;;;8.40;99.90;;;;;;5050521;28;20041;-70
2022/04/06 00:03:52;;;;;;;36.30;15.02;;;8.40;99.90;;;;;;5050813;28;20043;-71
2022/04/06 00:06:18;;;;;;;30.45;14.40;;;8.40;99.90;;;;;;5050558;28;20877;-71
2022/04/06 00:08:43;;;;;;;34.75;13.65;;;8.40;99.90;;;;;;5052027;28;20120;-70
2022/04/06 00:11:09;;;;;;;35.85;14.98;;;8.40;99.90;;;;;;5050558;28;20041;-71
2022/04/06 00:13:34;;;;;;;38.50;14.38;;;8.40;99.90;;;;;;5050011;28;20037;-71
2022/04/06 00:16:00;;;;;;;33.30;13.95;;;8.40;99.90;;;;;;5051786;28;20391;-71
2022/04/06 00:18:25;;;;;;;34.83;14.85;;;8.40;99.90;;;;;;5051810;28;20041;-71
2022/04/06 00:20:51;;;;;;;36.22;16.20;;;8.40;99.90;;;;;;5051411;28;20045;-71
2022/04/06 00:23:16;;;;;;;37.05;16.95;;;8.40;99.90;;;;;;5050459;28;20037;-71
2022/04/06 00:25:42;;;;;;;34.72;16.42;;;8.40;99.90;;;;;;5050538;28;20051;-70
2022/04/06 00:28:07;;;;;;;35.35;16.13;;;8.40;99.90;;;;;;5050311;28;20040;-70
2022/04/06 00:30:33;;;;;;;33.58;17.52;;;8.40;99.90;;;;;;5051410;28;20121;-71
2022/04/06 00:32:59;;;;;;;36.88;16.17;;;8.40;99.90;;;;;;5051671;28;20069;-71
2022/04/06 00:35:32;;;;;;;39.70;18.20;;;8.40;99.90;;;;;;5050210;28;20075;-71
2022/04/06 00:38:02;;;;;;;35.08;15.90;;;8.50;99.90;;;;;;5051589;28;20131;-70
2022/04/06 00:40:29;;;;;;;34.42;17.13;;;8.50;99.90;;;;;;5050263;28;20049;-71
2022/04/06 00:42:54;;;;;;;43.80;20.13;;;8.50;99.90;;;;;;5050517;28;20045;-71
2022/04/06 00:45:24;;;;;;;35.28;17.92;;;8.50;99.90;;;;;;5051479;28;20067;-71
2022/04/06 00:47:50;;;;;;;46.10;20.80;;;8.50;99.90;;;;;;5051382;28;20080;-71
2022/04/06 00:50:17;;;;;;;40.95;18.83;;;8.50;99.90;;;;;;5051347;28;20405;-71
2022/04/06 00:52:43;;;;;;;42.45;19.30;;;8.50;99.90;;;;;;5050062;28;20041;-71
2022/04/06 00:55:09;;;;;;;39.10;18.77;;;8.50;99.90;;;;;;5050026;28;20040;-71
2022/04/06 00:57:35;;;;;;;45.38;20.38;;;8.50;99.90;;;;;;5050136;28;20044;-70
2022/04/06 01:00:03;;;;;;;38.60;19.42;;;8.50;99.90;;;;;;5051008;28;20115;-71
2022/04/06 01:02:28;;;;;;;40.63;18.20;;;8.50;99.90;;;;;;5051373;28;20065;-70
2022/04/06 01:04:54;;;;;;;41.58;17.88;;;8.50;99.90;;;;;;5051410;28;20439;-70
2022/04/06 01:07:22;;;;;;;42.58;18.65;;;8.50;99.90;;;;;;5051146;28;20041;-71
2022/04/06 01:09:48;;;;;;;49.08;21.13;;;8.50;99.90;;;;;;5049947;28;20069;-71
2022/04/06 01:12:14;;;;;;;38.28;19.00;;;8.50;99.90;;;;;;5051069;28;20529;-70
2022/04/06 01:14:40;;;;;;;38.97;18.70;;;8.50;99.90;;;;;;5049860;28;20037;-71
2022/04/06 01:17:08;;;;;;;44.97;18.67;;;8.50;99.90;;;;;;5049840;28;20541;-71
2022/04/06 01:19:35;;;;;;;54.08;19.75;;;8.50;99.90;;;;;;5049906;28;20478;-70
2022/04/06 01:22:01;;;;;;;42.60;17.75;;;8.50;99.90;;;;;;5050999;28;20041;-71
2022/04/06 01:24:27;;;;;;;50.00;20.40;;;8.50;99.90;;;;;;5049694;28;20048;-70
2022/04/06 01:26:53;;;;;;;49.72;18.88;;;8.50;99.90;;;;;;5054434;28;20041;-70
2022/04/06 01:29:19;;;;;;;50.80;17.25;;;8.50;99.90;;;;;;5053519;28;20486;-71
2022/04/06 01:31:45;;;;;;;40.38;16.90;;;8.50;99.90;;;;;;5054349;28;20043;-71
2022/04/06 01:34:11;;;;;;;36.95;17.23;;;8.50;99.90;;;;;;5054627;28;20494;-71
2022/04/06 01:36:36;;;;;;;47.75;17.15;;;8.50;99.90;;;;;;5054595;28;20041;-71
2022/04/06 01:39:02;;;;;;;41.80;17.63;;;8.50;99.90;;;;;;5053347;28;20045;-71
2022/04/06 01:41:34;;;;;;;41.45;16.80;;;8.50;99.90;;;;;;5053230;28;20048;-71
2022/04/06 01:44:00;;;;;;;41.75;17.85;;;8.50;99.90;;;;;;5054374;28;20087;-71
2022/04/06 01:46:26;;;;;;;43.75;16.33;;;8.50;99.90;;;;;;5054389;28;20502;-70
2022/04/06 01:54:23;;;;;;;35.67;15.07;;;8.50;99.90;;;;;;5052975;28;20040;-70
2022/04/06 01:56:49;;;;;;;36.88;14.95;;;8.50;99.90;;;;;;5052943;28;20391;-71
2022/04/06 01:59:14;;;;;;;36.42;13.98;;;8.50;99.90;;;;;;5053338;28;20040;-70
2022/04/06 02:01:40;;;;;;;30.35;13.95;;;8.50;99.90;;;;;;5052657;28;20128;-71
2022/04/06 02:04:14;;;;;;;34.92;13.68;;;8.50;99.90;;;;;;5054172;28;20387;-70
2022/04/06 02:06:39;;;;;;;34.92;12.40;;;8.50;99.90;;;;;;5052767;28;20049;-70
2022/04/06 02:09:05;;;;;;;29.52;11.25;;;8.50;99.90;;;;;;5036176;28;20039;-70
2022/04/06 02:11:31;;;;;;;31.13;12.73;;;8.50;99.90;;;;;;5053965;28;20041;-71
2022/04/06 02:13:57;;;;;;;30.88;12.75;;;8.50;99.90;;;;;;5054133;28;20044;-70
2022/04/06 02:16:23;;;;;;;25.60;11.80;;;8.50;99.90;;;;;;5054118;28;20529;-70
2022/04/06 02:18:49;;;;;;;27.45;11.63;;;8.50;99.90;;;;;;5054015;28;20111;-71
2022/04/06 02:21:15;;;;;;;26.67;11.35;;;8.50;99.90;;;;;;5052565;28;20044;-71
2022/04/06 02:23:41;;;;;;;23.52;11.45;;;8.50;99.90;;;;;;5053545;28;20051;-71
2022/04/06 02:26:06;;;;;;;25.48;10.65;;;8.50;99.90;;;;;;5053766;28;20509;-70
2022/04/06 02:28:32;;;;;;;23.75;11.13;;;8.50;99.90;;;;;;5052470;28;20044;-70
2022/04/06 02:30:58;;;;;;;28.77;10.57;;;8.50;99.90;;;;;;5052130;28;20082;-71
2022/04/06 02:33:23;;;;;;;24.85;10.63;;;8.50;99.90;;;;;;5052291;28;20036;-71
2022/04/06 02:35:49;;;;;;;28.95;11.10;;;8.50;99.90;;;;;;5053542;28;20093;-71
2022/04/06 02:38:14;;;;;;;30.95;10.57;;;8.50;99.90;;;;;;5052727;28;20041;-70
2022/04/06 02:40:40;;;;;;;23.55;10.73;;;8.50;99.90;;;;;;5051942;28;20041;-71
2022/04/06 02:43:05;;;;;;;24.85;10.18;;;8.50;99.90;;;;;;5053633;28;20417;-71
2022/04/06 02:45:31;;;;;;;25.45;10.30;;;8.50;99.90;;;;;;5053518;28;20084;-71
2022/04/06 02:47:56;;;;;;;23.60;10.40;;;8.50;99.90;;;;;;5053344;28;20498;-71
2022/04/06 02:50:22;;;;;;;20.45;9.13;;;8.50;99.90;;;;;;5052974;28;20494;-71
2022/04/06 02:52:47;;;;;;;23.83;9.50;;;8.50;99.90;;;;;;5053164;28;20036;-70
2022/04/06 02:55:13;;;;;;;17.73;7.68;;;8.50;99.90;;;;;;5053337;28;20040;-71
2022/04/06 02:57:41;;;;;;;21.92;8.23;;;8.50;99.90;;;;;;5051930;28;20045;-71
2022/04/06 03:00:08;;;;;;;15.70;7.30;;;8.50;99.90;;;;;;5051564;28;20045;-71
2022/04/06 03:02:34;;;;;;;17.58;7.10;;;8.50;99.90;;;;;;5048596;28;20086;-71
2022/04/06 03:04:59;;;;;;;16.38;6.80;;;8.50;99.90;;;;;;5051456;28;20032;-70
2022/04/06 03:07:25;;;;;;;19.30;6.70;;;8.50;99.90;;;;;;5052657;28;20452;-71
2022/04/06 03:09:50;;;;;;;20.77;6.20;;;8.50;99.90;;;;;;5052943;28;20483;-71
2022/04/06 03:12:16;;;;;;;18.17;5.82;;;8.50;99.90;;;;;;5051421;28;20576;-71
2022/04/06 03:14:41;;;;;;;16.30;6.13;;;8.50;99.90;;;;;;5052859;28;20048;-71
2022/04/06 03:17:07;;;;;;;14.13;6.03;;;8.40;99.90;;;;;;5052873;28;20044;-71
2022/04/06 03:19:32;;;;;;;13.85;6.32;;;8.40;99.90;;;;;;5051352;28;20039;-71
2022/04/06 03:21:58;;;;;;;17.77;5.90;;;8.50;99.90;;;;;;5052342;28;20124;-71
2022/04/06 03:24:23;;;;;;;13.45;5.47;;;8.50;99.90;;;;;;5051429;28;20660;-71
2022/04/06 03:26:49;;;;;;;15.45;5.78;;;8.40;99.90;;;;;;5052687;28;20043;-70
2022/04/06 03:29:15;;;;;;;16.73;5.35;;;8.40;99.90;;;;;;5052609;28;20041;-71
2022/04/06 03:31:41;;;;;;;14.75;5.63;;;8.50;99.90;;;;;;5052281;28;20372;-71
2022/04/06 03:34:06;;;;;;;15.48;5.55;;;8.40;99.90;;;;;;5051084;28;20048;-71
2022/04/06 03:36:32;;;;;;;17.65;6.00;;;8.40;99.90;;;;;;5051003;28;20095;-71
2022/04/06 03:38:58;;;;;;;17.08;5.95;;;8.40;99.90;;;;;;5051431;28;20047;-71
2022/04/06 03:41:23;;;;;;;14.02;5.05;;;8.40;99.90;;;;;;5052199;28;20051;-71
2022/04/06 03:43:49;;;;;;;16.23;6.38;;;8.40;99.90;;;;;;5052370;28;20085;-71
2022/04/06 03:46:14;;;;;;;13.30;6.15;;;8.40;99.90;;;;;;5050861;28;20552;-71
2022/04/06 03:48:40;;;;;;;12.18;5.65;;;8.30;99.90;;;;;;5033443;28;20433;-71
2022/04/06 03:51:05;;;;;;;19.83;6.20;;;8.30;99.90;;;;;;5050499;28;20044;-71
2022/04/06 03:53:31;;;;;;;14.13;5.35;;;8.30;99.90;;;;;;5050783;28;20052;-71
2022/04/06 03:55:57;;;;;;;14.65;5.30;;;8.30;99.90;;;;;;5052135;28;20394;-71
2022/04/06 03:58:22;;;;;;;22.35;6.80;;;8.30;99.90;;;;;;5050784;28;20033;-71
2022/04/06 04:00:48;;;;;;;16.58;6.28;;;8.30;99.90;;;;;;5050435;28;20041;-71
2022/04/06 04:03:13;;;;;;;17.65;6.60;;;8.30;99.90;;;;;;5051877;28;20447;-70
2022/04/06 04:05:39;;;;;;;18.33;7.25;;;8.40;99.90;;;;;;5051905;28;20593;-70
2022/04/06 04:08:05;;;;;;;22.95;10.65;;;8.40;99.90;;;;;;5050473;28;20056;-71
2022/04/06 04:10:31;;;;;;;19.67;8.48;;;8.40;99.90;;;;;;5051752;28;20080;-71
2022/04/06 04:12:56;;;;;;;21.58;9.50;;;8.40;99.90;;;;;;5050768;28;20130;-71
2022/04/06 04:15:22;;;;;;;27.80;9.95;;;8.40;99.90;;;;;;5051810;28;20039;-71
2022/04/06 04:17:48;;;;;;;28.33;12.35;;;8.40;99.90;;;;;;5051719;28;20060;-70
2022/04/06 04:20:13;;;;;;;33.20;12.20;;;8.40;99.90;;;;;;5051412;28;20241;-71
2022/04/06 04:22:39;;;;;;;30.73;11.95;;;8.40;99.90;;;;;;5051918;28;20087;-70
2022/04/06 04:25:06;;;;;;;35.20;13.50;;;8.40;99.90;;;;;;5060552;22;20494;-79
2022/04/06 04:27:32;;;;;;;34.75;12.88;;;8.40;99.90;;;;;;5030854;28;20494;-81
2022/04/06 04:29:58;;;;;;;30.58;14.13;;;8.40;99.90;;;;;;5020404;28;20044;-82
2022/04/06 04:32:23;;;;;;;37.55;14.63;;;8.40;99.90;;;;;;5037034;28;20483;-82
2022/04/06 04:34:49;;;;;;;47.60;16.05;;;8.40;99.90;;;;;;5037241;28;20163;-82
2022/04/06 04:37:15;;;;;;;36.88;15.15;;;8.40;99.90;;;;;;5037787;28;20042;-82
2022/04/06 04:39:40;;;;;;;42.72;16.05;;;8.40;99.90;;;;;;5037748;28;20053;-83
2022/04/06 04:42:06;;;;;;;38.30;15.35;;;8.40;99.90;;;;;;5038246;28;20048;-82
2022/04/06 04:44:36;;;;;;;43.08;15.95;;;8.40;99.90;;;;;;5022834;28;20041;-82
2022/04/06 04:47:02;;;;;;;37.05;13.43;;;8.40;99.90;;;;;;5038227;28;20084;-82
2022/04/06 04:49:28;;;;;;;35.90;15.88;;;8.40;99.90;;;;;;5039328;28;20045;-82
2022/04/06 04:51:53;;;;;;;34.70;15.60;;;8.30;99.90;;;;;;5023807;28;20033;-82
2022/04/06 04:54:24;;;;;;;33.00;13.90;;;8.40;99.90;;;;;;5039886;28;20045;-81
2022/04/06 04:56:50;;;;;;;32.00;13.15;;;8.40;99.90;;;;;;5023601;28;20049;-81
2022/04/06 04:59:15;;;;;;;33.00;13.43;;;8.40;99.90;;;;;;5039177;28;20510;-82
2022/04/06 05:01:41;;;;;;;30.38;14.10;;;8.40;99.90;;;;;;5025380;28;20076;-82
2022/04/06 05:04:06;;;;;;;31.90;13.90;;;8.40;99.90;;;;;;5025367;28;20041;-82
2022/04/06 05:06:32;;;;;;;29.65;12.80;;;8.40;99.90;;;;;;5043223;28;20045;-82
2022/04/06 05:08:57;;;;;;;35.00;12.23;;;8.40;99.90;;;;;;5042477;28;20030;-82
2022/04/06 05:11:23;;;;;;;29.67;11.50;;;8.40;99.90;;;;;;5041244;28;20101;-81
2022/04/06 05:13:48;;;;;;;31.05;11.38;;;8.40;99.90;;;;;;5025023;28;20064;-81
2022/04/06 05:16:14;;;;;;;26.98;10.75;;;8.40;99.90;;;;;;5042441;28;20526;-82
2022/04/06 05:18:40;;;;;;;28.58;10.52;;;8.30;99.90;;;;;;5041530;28;20411;-82
2022/04/06 05:21:07;;;;;;;29.10;11.60;;;8.30;99.90;;;;;;5025388;28;20068;-82
2022/04/06 05:23:33;;;;;;;25.65;10.05;;;8.30;99.90;;;;;;5025029;28;20047;-82
2022/04/06 05:25:58;;;;;;;26.73;10.52;;;8.30;99.90;;;;;;5041428;28;20134;-81
2022/04/06 05:28:24;;;;;;;34.13;10.50;;;8.40;99.90;;;;;;5025653;28;20064;-82
2022/04/06 05:30:50;;;;;;;29.42;9.27;;;8.30;99.90;;;;;;5024386;28;20041;-82
2022/04/06 05:33:15;;;;;;;32.63;9.73;;;8.40;99.90;;;;;;5041035;28;20041;-82
2022/04/06 05:35:41;;;;;;;30.10;9.43;;;8.40;99.90;;;;;;5031137;28;20033;-82
2022/04/06 05:38:07;;;;;;;23.33;9.43;;;8.40;99.90;;;;;;5045681;28;20116;-82
2022/04/06 05:40:32;;;;;;;25.80;9.52;;;8.40;99.90;;;;;;5042731;28;20055;-82
2022/04/06 05:42:58;;;;;;;17.45;8.23;;;8.40;99.90;;;;;;5042643;28;20105;-82
2022/04/06 05:45:23;;;;;;;21.83;10.02;;;8.40;99.90;;;;;;5042301;28;20041;-82
2022/04/06 05:47:50;;;;;;;27.38;8.48;;;8.40;99.90;;;;;;5043366;28;20050;-82
2022/04/06 05:50:16;;;;;;;20.52;8.15;;;8.40;99.90;;;;;;5045865;28;20093;-82
2022/04/06 05:52:42;;;;;;;18.60;7.20;;;8.40;99.90;;;;;;5029315;28;20061;-82
2022/04/06 05:55:08;;;;;;;28.15;9.07;;;8.40;99.90;;;;;;5048368;28;20037;-82
2022/04/06 05:57:34;;;;;;;24.15;7.15;;;8.40;99.90;;;;;;5051352;28;20041;-82
2022/04/06 06:00:00;;;;;;;20.05;7.03;;;8.40;99.90;;;;;;5050221;28;20049;-82
2022/04/06 06:02:26;;;;;;;20.02;7.97;;;8.40;99.90;;;;;;5032595;28;20041;-83
2022/04/06 06:04:52;;;;;;;20.27;7.15;;;8.40;99.90;;;;;;5032997;28;20041;-82
2022/04/06 06:07:21;;;;;;;21.00;7.03;;;8.40;99.90;;;;;;5040261;28;20136;-82
2022/04/06 06:09:47;;;;;;;25.45;7.03;;;8.40;99.90;;;;;;5042014;28;20041;-82
2022/04/06 06:12:13;;;;;;;27.98;7.82;;;8.40;99.90;;;;;;5022954;28;20079;-82
2022/04/06 06:14:38;;;;;;;20.80;8.30;;;8.40;99.90;;;;;;5021007;28;20120;-82
2022/04/06 06:17:04;;;;;;;22.95;8.52;;;8.40;99.90;;;;;;5037846;28;20205;-82
2022/04/06 06:19:30;;;;;;;24.02;8.75;;;8.40;99.90;;;;;;5021222;28;20041;-82
2022/04/06 06:21:55;;;;;;;21.23;8.70;;;8.40;99.90;;;;;;5038142;28;20045;-82
2022/04/06 06:24:21;;;;;;;29.63;9.00;;;8.30;99.90;;;;;;5022172;28;20041;-82
2022/04/06 06:26:48;;;;;;;19.55;7.10;;;8.30;99.90;;;;;;5037803;28;20046;-82
2022/04/06 06:29:14;;;;;;;17.92;7.32;;;8.30;99.90;;;;;;5023593;28;20037;-82
2022/04/06 06:31:39;;;;;;;19.77;6.88;;;8.30;99.90;;;;;;5021749;28;20064;-82
2022/04/06 06:34:06;;;;;;;16.70;8.70;;;8.30;99.90;;;;;;5043216;28;20033;-82
2022/04/06 06:36:32;;;;;;;19.33;6.93;;;8.30;99.90;;;;;;5041881;28;20050;-81
2022/04/06 06:38:57;;;;;;;17.52;7.35;;;8.30;99.90;;;;;;5039663;28;20038;-81
2022/04/06 06:41:23;;;;;;;20.88;8.52;;;8.30;99.90;;;;;;5038208;28;20044;-82
2022/04/06 06:43:50;;;;;;;15.60;7.80;;;8.30;99.90;;;;;;5022551;28;20502;-82
2022/04/06 06:46:18;;;;;;;19.85;7.75;;;8.30;99.90;;;;;;5036447;28;20137;-81
2022/04/06 06:48:43;;;;;;;16.33;6.72;;;8.30;99.90;;;;;;5035968;28;20041;-81
2022/04/06 06:51:09;;;;;;;19.35;7.00;;;8.30;99.90;;;;;;5036007;28;20457;-82
2022/04/06 06:53:35;;;;;;;15.43;6.40;;;8.30;99.90;;;;;;5026513;28;20048;-82
2022/04/06 06:56:01;;;;;;;14.18;6.13;;;8.30;99.90;;;;;;5031320;28;20040;-82
2022/04/06 06:58:26;;;;;;;14.95;5.78;;;8.30;99.90;;;;;;5045260;28;20048;-82
2022/04/06 07:00:52;;;;;;;14.07;6.22;;;8.30;99.90;;;;;;5043447;28;20045;-82
2022/04/06 07:03:17;;;;;;;18.60;6.45;;;8.40;99.90;;;;;;5024691;28;20041;-80
2022/04/06 07:05:45;;;;;;;19.23;5.72;;;8.30;99.90;;;;;;5039234;28;20053;-80
2022/04/06 07:08:11;;;;;;;18.35;5.65;;;8.30;99.90;;;;;;5025442;28;20120;-83
2022/04/06 07:10:36;;;;;;;16.20;5.95;;;8.40;99.90;;;;;;5028893;28;20037;-82
2022/04/06 07:13:02;;;;;;;11.95;5.53;;;8.30;99.90;;;;;;5043894;28;20042;-82
2022/04/06 07:15:28;;;;;;;16.20;5.13;;;8.40;99.90;;;;;;5045010;28;20501;-81
2022/04/06 07:17:55;;;;;;;15.70;5.40;;;8.40;99.90;;;;;;5043453;28;20049;-80
2022/04/06 07:20:26;;;;;;;15.05;4.97;;;8.30;99.90;;;;;;5024483;28;20049;-81
2022/04/06 07:22:52;;;;;;;13.48;4.40;;;8.40;99.90;;;;;;5040188;28;20037;-82
2022/04/06 07:25:18;;;;;;;14.82;4.93;;;8.40;99.90;;;;;;5040329;28;20087;-82
2022/04/06 07:27:44;;;;;;;15.65;4.95;;;8.40;99.90;;;;;;5040665;28;20045;-81
2022/04/06 07:30:12;;;;;;;15.05;5.10;;;8.40;99.90;;;;;;5042728;28;20045;-81
2022/04/06 07:32:37;;;;;;;16.88;5.55;;;8.40;99.90;;;;;;5039398;28;20045;-81
2022/04/06 07:35:05;;;;;;;13.95;5.70;;;8.40;99.90;;;;;;5038744;28;20042;-82
2022/04/06 07:37:37;;;;;;;19.27;6.32;;;8.40;99.90;;;;;;5038809;28;20109;-83
2022/04/06 07:40:04;;;;;;;11.20;5.22;;;8.40;99.90;;;;;;5039177;28;20056;-81
2022/04/06 07:42:30;;;;;;;18.88;5.82;;;8.40;99.90;;;;;;5019367;28;20049;-82
2022/04/06 07:44:56;;;;;;;14.50;6.05;;;8.40;99.90;;;;;;5040454;28;20112;-82
2022/04/06 07:47:27;;;;;;;17.38;6.43;;;8.40;99.90;;;;;;5040767;28;20045;-83
2022/04/06 07:49:53;;;;;;;12.35;6.38;;;8.40;99.90;;;;;;5039933;28;20033;-83
2022/04/06 07:52:22;;;;;;;16.55;6.15;;;8.40;99.90;;;;;;5041035;28;20406;-82
2022/04/06 07:54:47;;;;;;;13.27;5.63;;;8.40;99.90;;;;;;5037316;28;20040;-82
2022/04/06 07:57:13;;;;;;;19.58;7.13;;;8.40;99.90;;;;;;5033829;28;20127;-79
2022/04/06 07:59:38;;;;;;;19.88;6.57;;;8.40;99.90;;;;;;5034509;28;20494;-80
2022/04/06 08:02:04;;;;;;;19.35;6.57;;;8.40;99.90;;;;;;5037095;28;20128;-80
2022/04/06 08:04:29;;;;;;;15.30;7.07;;;8.40;99.90;;;;;;5021287;28;20045;-79
2022/04/06 08:06:55;;;;;;;15.95;6.80;;;8.40;99.90;;;;;;5037278;28;20052;-80
2022/04/06 08:09:20;;;;;;;20.95;7.10;;;8.40;99.90;;;;;;5023346;28;20034;-79
2022/04/06 08:11:47;;;;;;;15.73;6.28;;;8.40;99.90;;;;;;5038905;28;20041;-77
2022/04/06 08:14:12;;;;;;;22.75;6.97;;;8.40;99.90;;;;;;5034242;28;20118;-79
2022/04/06 08:16:38;;;;;;;17.35;7.00;;;8.40;99.90;;;;;;5034262;28;20418;-79
2022/04/06 08:19:03;;;;;;;22.90;7.35;;;8.40;99.90;;;;;;5035792;28;20477;-79
2022/04/06 08:21:32;;;;;;;22.95;8.10;;;8.50;99.90;;;;;;5034381;28;20111;-79
2022/04/06 08:23:57;;;;;;;17.42;7.40;;;8.50;99.90;;;;;;5035142;28;20049;-79
2022/04/06 08:26:23;;;;;;;16.90;7.18;;;8.50;99.90;;;;;;5035664;28;20183;-79
2022/04/06 08:28:50;;;;;;;17.90;7.57;;;8.50;99.90;;;;;;5034568;28;20052;-79
2022/04/06 08:31:15;;;;;;;22.15;6.68;;;8.50;99.90;;;;;;5035178;28;20068;-79
2022/04/06 08:33:44;;;;;;;20.60;7.00;;;8.60;99.90;;;;;;5036999;28;20425;-79
2022/04/06 08:36:12;;;;;;;20.58;7.18;;;8.60;99.90;;;;;;5041738;28;20041;-79
2022/04/06 08:38:41;;;;;;;15.68;6.30;;;8.60;99.90;;;;;;5041166;28;20047;-80
2022/04/06 08:41:06;;;;;;;17.88;6.55;;;8.70;99.90;;;;;;5041638;28;20034;-79
2022/04/06 08:43:42;;;;;;;14.82;5.70;;;8.60;99.90;;;;;;5040723;28;20029;-79
2022/04/06 08:46:11;;;;;;;15.63;5.93;;;8.70;99.90;;;;;;5043912;28;20041;-79
2022/04/06 08:48:37;;;;;;;20.13;5.90;;;8.70;99.90;;;;;;5020739;28;20052;-79
2022/04/06 08:51:06;;;;;;;18.35;6.43;;;8.70;99.90;;;;;;5022572;28;20078;-79
2022/04/06 08:53:32;;;;;;;16.63;5.53;;;8.60;99.90;;;;;;5022305;28;20057;-79
2022/04/06 08:55:58;;;;;;;22.23;6.47;;;8.60;99.90;;;;;;5023573;28;20041;-79
2022/04/06 08:58:23;;;;;;;15.50;6.00;;;8.60;99.90;;;;;;5024578;28;20038;-79
2022/04/06 09:00:49;;;;;;;16.17;6.00;;;8.70;99.90;;;;;;5022303;28;20415;-79
2022/04/06 09:03:16;;;;;;;18.05;5.68;;;8.70;99.90;;;;;;5021749;28;20093;-79
2022/04/06 09:05:42;;;;;;;12.45;5.10;;;8.70;99.90;;;;;;5023964;28;20128;-79
2022/04/06 09:08:08;;;;;;;13.95;5.57;;;8.70;99.90;;;;;;5023821;28;20076;-79
2022/04/06 09:10:36;;;;;;;16.63;5.47;;;8.80;99.90;;;;;;5004321;28;20160;-79
2022/04/06 09:13:20;;;;;;;14.57;6.03;;;8.90;99.90;;;;;;5003691;28;20487;-79
2022/04/06 09:15:47;;;;;;;15.45;6.65;;;8.90;99.90;;;;;;5019960;28;20666;-78
2022/04/06 09:18:13;;;;;;;18.08;6.45;;;9.00;99.90;;;;;;5021344;28;20042;-79
2022/04/06 09:20:39;;;;;;;13.43;6.00;;;9.00;99.90;;;;;;5003502;28;20045;-80
2022/04/06 09:23:06;;;;;;;14.73;6.30;;;9.10;99.90;;;;;;5021516;28;20038;-79
2022/04/06 09:25:37;;;;;;;16.70;6.20;;;9.00;99.90;;;;;;5018983;28;20458;-78
2022/04/06 09:28:11;;;;;;;15.50;5.63;;;9.10;99.90;;;;;;5006365;28;20049;-78
2022/04/06 09:30:47;;;;;;;18.42;5.93;;;9.20;99.90;;;;;;5004679;28;20046;-79
2022/04/06 09:33:21;;;;;;;16.33;6.47;;;9.20;99.90;;;;;;5022428;28;20092;-79
2022/04/06 09:35:48;;;;;;;14.25;5.60;;;9.20;99.90;;;;;;5022254;28;20048;-79
2022/04/06 09:38:16;;;;;;;14.25;6.47;;;9.30;99.90;;;;;;5007427;28;20037;-79
2022/04/06 09:40:43;;;;;;;15.27;5.55;;;9.30;99.90;;;;;;5021335;28;20076;-79
2022/04/06 09:43:22;;;;;;;10.70;5.40;;;9.30;99.90;;;;;;5021215;28;20084;-79
2022/04/06 09:48:32;;;;;;;14.77;5.57;;;9.40;99.90;;;;;;5020608;28;20054;-79
2022/04/06 09:50:57;;;;;;;12.98;5.25;;;9.40;99.90;;;;;;5003861;28;20049;-79
2022/04/06 09:53:27;;;;;;;16.90;6.40;;;9.50;99.90;;;;;;5019198;28;20054;-79
2022/04/06 09:55:57;;;;;;;17.08;5.80;;;9.50;99.90;;;;;;5017387;28;20466;-79
2022/04/06 09:58:23;;;;;;;19.63;6.57;;;9.60;99.90;;;;;;5017449;28;20041;-78
2022/04/06 10:00:51;;;;;;;16.08;6.20;;;9.60;99.90;;;;;;5001959;28;20125;-78
2022/04/06 10:03:19;;;;;;;15.23;5.60;;;9.70;99.90;;;;;;5000579;28;20095;-78
2022/04/06 10:05:47;;;;;;;15.77;5.53;;;9.70;99.90;;;;;;5017374;28;20523;-78
2022/04/06 10:08:12;;;;;;;16.55;6.07;;;9.70;99.90;;;;;;5016913;28;20046;-78
2022/04/06 10:10:40;;;;;;;14.13;5.65;;;9.70;99.90;;;;;;5002349;28;20385;-78
2022/04/06 10:13:09;;;;;;;19.60;6.47;;;9.70;99.90;;;;;;5020526;28;20037;-78
2022/04/06 10:15:37;;;;;;;12.63;5.28;;;9.70;99.90;;;;;;5017060;28;20069;-78
2022/04/06 10:18:03;;;;;;;14.27;5.55;;;9.70;99.90;;;;;;5037831;28;20037;-78
2022/04/06 10:20:36;;;;;;;21.27;5.95;;;9.60;99.90;;;;;;5036696;28;20038;-78
2022/04/06 10:23:15;;;;;;;10.65;5.30;;;9.60;99.90;;;;;;5012517;28;20049;-78
2022/04/06 10:25:59;;;;;;;16.42;6.22;;;9.60;99.90;;;;;;5056025;22;20136;-72
2022/04/06 10:28:24;;;;;;;19.67;7.95;;;9.60;99.90;;;;;;5032269;28;20593;-72
2022/04/06 10:31:12;;;;;;;14.82;5.82;;;9.60;99.90;;;;;;5033249;28;20125;-71
2022/04/06 10:33:38;;;;;;;20.20;6.68;;;9.60;99.90;;;;;;5033397;28;20490;-72
2022/04/06 10:36:28;;;;;;;16.10;6.82;;;9.60;99.90;;;;;;5033742;28;20112;-71
2022/04/06 10:39:10;;;;;;;11.93;6.75;;;9.60;99.90;;;;;;5031534;28;20041;-72
2022/04/06 10:41:41;;;;;;;12.40;6.78;;;9.60;99.90;;;;;;5013728;28;20042;-72
2022/04/06 10:44:08;;;;;;;18.13;6.70;;;9.60;99.90;;;;;;5013777;28;20073;-72
2022/04/06 10:46:41;;;;;;;25.15;7.95;;;9.60;99.90;;;;;;5013748;28;20064;-72
2022/04/06 10:49:06;;;;;;;15.18;7.82;;;9.60;99.90;;;;;;5013635;28;20038;-73
2022/04/06 10:51:46;;;;;;;16.67;7.13;;;9.70;99.90;;;;;;5013570;28;20053;-72
2022/04/06 10:54:14;;;;;;;19.35;7.57;;;9.60;99.90;;;;;;5031903;28;20151;-72
2022/04/06 10:57:01;;;;;;;22.35;8.20;;;9.60;99.90;;;;;;5033360;28;20044;-72
2022/04/06 10:59:30;;;;;;;22.90;9.38;;;9.60;99.90;;;;;;5031551;28;20044;-72
2022/04/06 11:02:14;;;;;;;27.40;8.70;;;9.60;99.90;;;;;;5033092;28;20048;-72
2022/04/06 11:04:40;;;;;;;20.85;8.73;;;9.60;99.90;;;;;;5032544;28;20038;-72
2022/04/06 11:07:08;;;;;;;27.83;9.48;;;9.60;99.90;;;;;;5032727;28;20496;-72
2022/04/06 11:12:26;;;;;;;22.02;9.52;;;9.50;99.90;;;;;;5033069;28;20053;-71
2022/04/06 11:14:57;;;;;;;21.65;10.40;;;9.60;99.90;;;;;;5033081;28;20048;-72
2022/04/06 11:17:34;;;;;;;26.75;11.15;;;9.60;99.90;;;;;;5032994;28;20045;-71
2022/04/06 11:20:24;;;;;;;20.70;9.43;;;9.60;99.90;;;;;;5032365;28;20045;-73
2022/04/06 11:22:53;;;;;;;28.63;9.88;;;9.60;99.90;;;;;;5027882;28;20529;-72
2022/04/06 11:25:20;;;;;;;25.63;11.38;;;9.60;99.90;;;;;;5031277;28;20053;-72
2022/04/06 11:27:46;;;;;;;22.77;10.77;;;9.60;99.90;;;;;;5032727;28;20048;-72
2022/04/06 11:30:14;;;;;;;22.85;10.07;;;9.60;99.90;;;;;;5032064;28;20052;-72
2022/04/06 11:32:49;;;;;;;22.02;10.85;;;9.60;99.90;;;;;;5031596;28;20037;-72
2022/04/06 11:35:16;;;;;;;27.55;11.88;;;9.60;99.90;;;;;;5011950;28;20044;-72
2022/04/06 11:37:47;;;;;;;29.38;12.40;;;9.70;99.90;;;;;;5031969;28;20569;-73
2022/04/06 11:40:15;;;;;;;26.70;11.68;;;9.70;99.90;;;;;;5028568;28;20049;-72
2022/04/06 11:42:40;;;;;;;26.08;12.63;;;9.80;99.90;;;;;;5030754;28;20045;-71
2022/04/06 11:45:08;;;;;;;27.05;12.13;;;10.00;99.90;;;;;;5031631;28;20033;-75
2022/04/06 11:47:36;;;;;;;21.40;11.77;;;10.10;99.90;;;;;;5030335;28;20637;-71
2022/04/06 11:50:12;;;;;;;23.95;11.52;;;10.20;99.90;;;;;;5035663;28;20040;-71
2022/04/06 11:52:40;;;;;;;25.00;10.57;;;10.30;99.90;;;;;;5050994;28;20087;-70
2022/04/06 11:55:07;;;;;;;21.38;11.18;;;10.40;99.90;;;;;;5050641;28;20067;-70
2022/04/06 11:57:38;;;;;;;26.83;11.88;;;10.50;99.90;;;;;;5041088;28;20077;-69
2022/04/06 12:00:08;;;;;;;22.38;9.77;;;10.50;99.90;;;;;;5031112;28;20051;-70
2022/04/06 12:02:50;;;;;;;24.77;10.23;;;10.60;99.90;;;;;;5014170;28;20060;-69
2022/04/06 12:05:17;;;;;;;26.58;11.40;;;10.70;99.90;;;;;;5030063;28;20060;-71
2022/04/06 12:07:44;;;;;;;19.58;10.18;;;10.80;99.90;;;;;;5030515;28;20478;-71
2022/04/06 12:10:10;;;;;;;22.17;10.75;;;10.90;99.90;;;;;;5030477;28;20557;-71
2022/04/06 12:12:37;;;;;;;16.90;9.10;;;11.00;99.90;;;;;;5031694;28;20049;-71
2022/04/06 12:15:04;;;;;;;20.23;9.20;;;11.20;99.90;;;;;;5031920;28;20045;-71
2022/04/06 12:17:31;;;;;;;23.08;9.02;;;11.30;99.90;;;;;;5032000;28;20057;-71
2022/04/06 12:19:57;;;;;;;17.02;8.10;;;11.30;99.90;;;;;;5031403;28;20431;-71
2022/04/06 12:22:26;;;;;;;15.90;8.13;;;11.40;99.90;;;;;;5031736;28;20037;-71
2022/04/06 12:24:53;;;;;;;21.42;8.73;;;11.40;99.90;;;;;;5030220;28;20056;-71
2022/04/06 12:27:29;;;;;;;18.08;8.65;;;11.50;99.90;;;;;;5029625;28;20056;-71
2022/04/06 12:30:11;;;;;;;24.63;11.95;;;11.40;99.90;;;;;;5030376;28;20076;-72
2022/04/06 12:32:44;;;;;;;22.05;11.57;;;11.30;99.90;;;;;;5031821;28;20095;-71
2022/04/06 12:35:20;;;;;;;17.92;8.13;;;11.30;99.90;;;;;;5031687;28;20391;-71
2022/04/06 12:37:46;;;;;;;16.55;6.97;;;11.30;99.90;;;;;;5031957;28;20037;-71
2022/04/06 12:40:23;;;;;;;23.10;6.38;;;11.30;99.90;;;;;;5031377;28;20620;-71
2022/04/06 12:42:49;;;;;;;18.42;5.30;;;11.20;99.90;;;;;;5031663;28;20060;-68
2022/04/06 12:45:15;;;;;;;19.17;6.25;;;11.20;99.90;;;;;;5031033;28;20046;-67
2022/04/06 12:47:41;;;;;;;17.27;7.72;;;11.30;99.90;;;;;;5031565;28;20037;-67
2022/04/06 12:50:19;;;;;;;17.92;7.40;;;11.30;99.90;;;;;;5026858;28;20036;-68
2022/04/06 12:53:10;;;;;;;16.10;7.10;;;11.40;99.90;;;;;;5031795;28;20553;-67
2022/04/06 12:55:36;;;;;;;14.50;5.45;;;11.50;99.90;;;;;;5026999;28;20632;-68